Terminal Aerodrome Forecast
Issued by NWS

Home | Current Version | Previous Version | Text Only | Print | Product List | Glossary On
Versions: 1 2 3 4 5 6 7 8 9 10 11 12 13 14 15 16
000
FTUS42 KILM 030533
TAFCRE
TAF
KCRE 030533Z 0306/0406 25010G16KT 2SM TSRA BR SCT025 OVC035CB
     FM030700 VRB03KT P6SM VCSH SCT025 BKN050 OVC100
     FM031000 21005KT 6SM -SHRA BR SCT007 OVC020
     FM031300 15008KT P6SM VCTS FEW007 SCT025 OVC050CB
     FM040200 VRB04KT P6SM -RA SCT015 BKN025=

USA.gov is the U.S. government's official web portal to all federal, state and local government web resources and services.